Cape Magnolia — 3FGP2 — position and weather

sailwx.info

Track history (hours):
 
Tides and Currents Weather Stations Pressure Air Temp Water Temp Dewpoint Dewpoint Depression Visibility Wind Speed Wind Dir Waves Ship Positions

Cape Magnolia

Last reported at 2017-Jun-14 18:44 UTC. Time now 2017-Jun-24 17:32 UTC.
Position S 30°33' E 031°19'.
Warning: this ship's position is 9 days out of date.

Length 292 m; draft 10.3 m.

Type: Cargo ship. MMSI: 357427000.

Date/timePositionNaut miles runAvg speedWind from/ knotsBaromVisibWave heightAir tempDewpointWater temp
2017-Jun-14 18:44S 30°33' E 031°19'313.2
2017-Jun-14 18:30S 30°31' E 031°22'714.0
2017-Jun-14 18:00S 30°27' E 031°27'714.2
2017-Jun-14 17:30S 30°22' E 031°34'713.9
2017-Jun-14 17:00S 30°17' E 031°39'713.6
2017-Jun-14 16:30S 30°12' E 031°45'713.6
2017-Jun-14 16:00S 30°08' E 031°51'713.9
2017-Jun-14 15:30S 30°03' E 031°57'713.3
2017-Jun-14 14:58S 29°59' E 032°04'  
2017-Jun-09 08:11S 19°57' E 056°42'311.0
2017-Jun-09 07:56S 19°56' E 056°45'510.8
2017-Jun-09 07:30S 19°54' E 056°49'611.8
2017-Jun-09 07:00S 19°51' E 056°55'714.4
2017-Jun-09 06:30S 19°48' E 057°02'714.4
2017-Jun-09 06:00S 19°45' E 057°09'714.4
2017-Jun-09 05:30S 19°42' E 057°16'612.7
2017-Jun-09 05:00S 19°39' E 057°22'510.9
2017-Jun-09 04:30S 19°36' E 057°27'611.1
2017-Jun-09 04:00S 19°34' E 057°32'611.3
2017-Jun-09 03:30S 19°32' E 057°38'611.2
2017-Jun-09 03:00S 19°29' E 057°43'511.0
2017-Jun-09 02:30S 19°27' E 057°48'511.0
2017-Jun-09 02:00S 19°24' E 057°53'611.0
2017-Jun-09 01:30S 19°22' E 057°59'611.2
2017-Jun-09 00:56S 19°19' E 058°05'1311.0
2017-Jun-08 23:42S 19°13' E 058°17'610.8
2017-Jun-08 23:07S 19°10' E 058°23'  
Track history (hours):
 
Tides and Currents Weather Stations Pressure Air Temp Water Temp Dewpoint Dewpoint Depression Visibility Wind Speed Wind Dir Waves Ship Positions

Cape Magnolia

Last reported at 2017-Jun-14 18:44 UTC. Time now 2017-Jun-24 17:32 UTC.
Position S 30°33' E 031°19'.
Warning: this ship's position is 9 days out of date.

Length 292 m; draft 10.3 m.

Type: Cargo ship. MMSI: 357427000.

Date/timePositionNaut miles runAvg speedWind from/ knotsBaromVisibWave heightAir tempDewpointWater temp
2017-Jun-14 18:44S 30°33' E 031°19'313.2
2017-Jun-14 18:30S 30°31' E 031°22'714.0
2017-Jun-14 18:00S 30°27' E 031°27'714.2
2017-Jun-14 17:30S 30°22' E 031°34'713.9
2017-Jun-14 17:00S 30°17' E 031°39'713.6
2017-Jun-14 16:30S 30°12' E 031°45'713.6
2017-Jun-14 16:00S 30°08' E 031°51'713.9
2017-Jun-14 15:30S 30°03' E 031°57'713.3
2017-Jun-14 14:58S 29°59' E 032°04'  
2017-Jun-09 08:11S 19°57' E 056°42'311.0
2017-Jun-09 07:56S 19°56' E 056°45'510.8
2017-Jun-09 07:30S 19°54' E 056°49'611.8
2017-Jun-09 07:00S 19°51' E 056°55'714.4
2017-Jun-09 06:30S 19°48' E 057°02'714.4
2017-Jun-09 06:00S 19°45' E 057°09'714.4
2017-Jun-09 05:30S 19°42' E 057°16'612.7
2017-Jun-09 05:00S 19°39' E 057°22'510.9
2017-Jun-09 04:30S 19°36' E 057°27'611.1
2017-Jun-09 04:00S 19°34' E 057°32'611.3
2017-Jun-09 03:30S 19°32' E 057°38'611.2
2017-Jun-09 03:00S 19°29' E 057°43'511.0
2017-Jun-09 02:30S 19°27' E 057°48'511.0
2017-Jun-09 02:00S 19°24' E 057°53'611.0
2017-Jun-09 01:30S 19°22' E 057°59'611.2
2017-Jun-09 00:56S 19°19' E 058°05'1311.0
2017-Jun-08 23:42S 19°13' E 058°17'610.8
2017-Jun-08 23:07S 19°10' E 058°23'  

Dump ship's entire track history